Decoded Metar for ZGHA (CHANGCHA in CHINA) (IATA:CSX) | Meteo·Mobile Aviation Weather
aviador You're here:

ZGHA Decoded Metar

CHANGCHA in CHINA
Report Time2019-10-22 13:00:00
UTC Time2019-10-22 13:43:23
Flight Rules ifr IFR
Wind360° at 8 kt
W.Decomp.*RWY 36: 8.0 kt HW 0.4 kt RCW
Visibility3200 m
Phenomena:Light Rain
Mist
Clouds:N/A
CeilingNone
Temp17°C (ISA +2)
Dew Point17°C (100% RH)
AAT16.5°C
QNH1014 hPa
Density Alt728 ft
Elevation217 ft
Report Wrong Elevation
Raw Report
ZGHA 221300Z 36004MPS 3200 -RA BR NSC 17/17 Q1014 NOSIG=

Extra information for ZGHA:More info

Metar Taf Metar & Taf Last 4 Metars F.Rules Stats Wind Profile Meteogram Temp Stats Airport Information Weather charts Add Link Nearby VenuesMetar ALERT Operation Metar Decoded Social comments